.
WxDataArchive / Data Records for 2006-10-01
2006-09-30 October 2006 2006-10-02

Data Records for Sunday, 01 October 2006

Time	Temp	Chill	HIndex	Humid	Dewpt	 Wind 	HiWind	WindDir	Rain 	Barom 
-----	----	-----	------	-----	-----	------	------	-------	-----	----- 
00:00	51.9	51.9	51.9	93	49.9	1	3	270	0.00	29.863 
00:05	52.0	52.0	52.0	92	49.7	0	2	270	0.00	29.863 
00:10	52.0	52.0	52.0	91	49.5	0	1	270	0.00	29.863 
00:15	52.2	52.2	52.2	91	49.7	0	2	270	0.00	29.861 
00:20	52.2	52.2	52.2	91	49.7	0	2	270	0.00	29.861 
00:25	52.2	52.2	52.2	91	49.7	0	1	270	0.00	29.861 
00:30	52.2	52.2	52.2	91	49.7	0	1	270	0.00	29.858 
00:35	52.2	52.2	52.2	91	49.7	0	1	270	0.00	29.858 
00:40	52.2	52.2	52.2	91	49.7	0	3	270	0.00	29.858 
00:45	52.2	52.2	52.2	91	49.7	0	1	270	0.00	29.842 
00:50	52.2	52.2	52.2	92	49.9	0	2	270	0.00	29.842 
00:55	52.2	52.2	52.2	92	49.9	0	2	270	0.00	29.842 
01:00	52.2	52.2	52.2	92	49.9	0	1	270	0.00	29.837 
01:05	52.0	52.0	52.0	92	49.7	0	0	---	0.00	29.837 
01:10	52.0	52.0	52.0	92	49.7	0	1	270	0.00	29.837 
01:15	52.0	52.0	52.0	92	49.7	0	0	---	0.00	29.840 
01:20	52.0	52.0	52.0	92	49.7	0	0	---	0.00	29.840 
01:25	51.9	51.9	51.9	93	49.9	0	1	270	0.00	29.840 
01:30	52.0	52.0	52.0	93	50.0	0	1	270	0.00	29.843 
01:35	52.0	52.0	52.0	93	50.0	0	1	270	0.00	29.843 
01:40	51.9	51.9	51.9	93	49.9	0	1	270	0.00	29.843 
01:45	51.9	51.9	51.9	92	49.6	0	1	270	0.00	29.844 
01:50	51.7	51.7	51.7	92	49.5	0	0	---	0.00	29.844 
01:55	51.6	51.6	51.6	92	49.4	0	1	270	0.00	29.844 
02:00	51.4	51.4	51.4	92	49.2	0	0	---	0.00	29.844 
02:05	51.3	51.3	51.3	92	49.1	0	0	---	0.00	29.844 
02:10	51.0	51.0	51.0	92	48.8	0	0	---	0.00	29.844 
02:15	50.7	50.7	50.7	92	48.5	0	0	---	0.00	29.845 
02:20	50.5	50.5	50.5	92	48.3	0	0	---	0.00	29.845 
02:25	50.2	50.2	50.2	92	48.0	0	0	---	0.00	29.845 
02:30	49.9	49.9	49.9	93	48.0	0	0	---	0.00	29.853 
02:35	49.6	49.6	49.6	93	47.7	0	0	---	0.00	29.853 
02:40	49.4	49.4	49.4	93	47.5	0	0	---	0.00	29.853 
02:45	49.1	49.1	49.1	93	47.2	0	0	---	0.00	29.861 
02:50	48.9	48.9	48.9	93	47.0	0	0	---	0.00	29.861 
02:55	48.6	48.6	48.6	93	46.7	0	0	---	0.00	29.861 
03:00	48.3	48.3	48.3	93	46.4	0	0	---	0.00	29.868 
03:05	48.0	48.0	48.0	93	46.1	0	0	---	0.00	29.868 
03:10	47.9	47.9	47.9	93	46.0	0	0	---	0.00	29.868 
03:15	47.7	47.7	47.7	93	45.8	0	0	---	0.01	29.872 
03:20	47.6	47.6	47.6	94	46.0	0	0	---	0.00	29.872 
03:25	47.4	47.4	47.4	94	45.8	0	0	---	0.00	29.872 
03:30	47.3	47.3	47.3	94	45.7	0	0	---	0.00	29.876 
03:35	47.3	47.3	47.3	94	45.7	0	0	---	0.00	29.876 
03:40	47.4	47.4	47.4	95	46.0	0	1	270	0.00	29.876 
03:45	47.4	47.4	47.4	95	46.0	0	0	---	0.00	29.878 
03:50	47.7	47.7	47.7	96	46.6	0	1	270	0.00	29.878 
03:55	48.2	48.2	48.2	96	47.1	0	1	270	0.00	29.878 
04:00	48.2	48.2	48.2	96	47.1	0	1	270	0.00	29.887 
04:05	48.2	48.2	48.2	96	47.1	0	1	270	0.00	29.887 
04:10	48.3	48.3	48.3	96	47.2	0	1	270	0.00	29.887 
04:15	48.5	48.5	48.5	96	47.4	0	1	270	0.00	29.888 
04:20	48.6	48.6	48.6	96	47.5	0	1	270	0.00	29.888 
04:25	48.6	48.6	48.6	96	47.5	0	1	270	0.00	29.888 
04:30	48.6	48.6	48.6	96	47.5	0	1	270	0.00	29.891 
04:35	48.6	48.6	48.6	96	47.5	0	1	270	0.00	29.891 
04:40	48.5	48.5	48.5	96	47.4	0	1	270	0.00	29.891 
04:45	48.3	48.3	48.3	96	47.2	0	1	270	0.00	29.897 
04:50	48.2	48.2	48.2	96	47.1	0	0	---	0.00	29.897 
04:55	48.0	48.0	48.0	96	46.9	0	0	---	0.00	29.897 
05:00	47.9	47.9	47.9	96	46.8	0	1	270	0.00	29.903 
05:05	47.7	47.7	47.7	96	46.6	0	0	---	0.00	29.903 
05:10	47.7	47.7	47.7	96	46.6	0	0	---	0.00	29.903 
05:15	47.7	47.7	47.7	96	46.6	0	0	---	0.00	29.914 
05:20	47.7	47.7	47.7	96	46.6	0	0	---	0.00	29.914 
05:25	47.6	47.6	47.6	96	46.5	0	0	---	0.00	29.914 
05:30	47.3	47.3	47.3	96	46.2	0	0	---	0.00	29.918 
05:35	47.1	47.1	47.1	96	46.0	0	0	---	0.00	29.918 
05:40	46.8	46.8	46.8	96	45.7	0	0	---	0.00	29.918 
05:45	46.5	46.5	46.5	96	45.4	0	0	---	0.00	29.922 
05:50	46.2	46.2	46.2	96	45.1	0	0	---	0.00	29.922 
05:55	46.0	46.0	46.0	96	44.9	0	0	---	0.00	29.922 
06:00	45.8	45.8	45.8	96	44.7	0	0	---	0.00	29.929 
06:05	45.5	45.5	45.5	96	44.4	0	0	---	0.00	29.929 
06:10	45.2	45.2	45.2	96	44.1	0	0	---	0.00	29.929 
06:15	45.1	45.1	45.1	96	44.0	0	0	---	0.00	29.934 
06:20	44.9	44.9	44.9	96	43.8	0	0	---	0.00	29.934 
06:25	44.8	44.8	44.8	96	43.7	0	0	---	0.00	29.934 
06:30	44.6	44.6	44.6	96	43.5	0	0	---	0.00	29.940 
06:35	44.5	44.5	44.5	96	43.4	0	0	---	0.00	29.940 
06:40	44.5	44.5	44.5	96	43.4	0	0	---	0.00	29.940 
06:45	44.2	44.2	44.2	96	43.1	0	0	---	0.00	29.946 
06:50	44.2	44.2	44.2	96	43.1	0	0	---	0.00	29.946 
06:55	44.1	44.1	44.1	96	43.0	0	0	---	0.00	29.946 
07:00	44.1	44.1	44.1	96	43.0	0	0	---	0.00	29.950 
07:05	43.9	43.9	43.9	96	42.8	0	0	---	0.00	29.950 
07:10	43.8	43.8	43.8	96	42.7	0	0	---	0.00	29.950 
07:15	43.8	43.8	43.8	96	42.7	0	0	---	0.00	29.956 
07:20	43.8	43.8	43.8	96	42.7	0	0	---	0.00	29.956 
07:25	43.9	43.9	43.9	96	42.8	0	0	---	0.00	29.956 
07:30	43.9	43.9	43.9	96	42.8	0	0	---	0.00	29.967 
07:35	43.8	43.8	43.8	96	42.7	0	0	---	0.00	29.967 
07:40	43.6	43.6	43.6	96	42.5	0	0	---	0.00	29.967 
07:45	43.5	43.5	43.5	96	42.4	0	0	---	0.00	29.972 
07:50	43.5	43.5	43.5	96	42.4	0	0	---	0.00	29.972 
07:55	43.5	43.5	43.5	96	42.4	0	0	---	0.00	29.972 
08:00	43.3	43.3	43.3	96	42.2	0	0	---	0.00	29.979 
08:05	43.3	43.3	43.3	96	42.2	0	0	---	0.00	29.979 
08:10	43.6	43.6	43.6	96	42.5	0	0	---	0.00	29.979 
08:15	43.9	43.9	43.9	97	43.1	0	0	---	0.00	29.986 
08:20	44.5	44.5	44.5	97	43.7	0	0	---	0.00	29.986 
08:25	45.1	45.1	45.1	97	44.3	0	0	---	0.00	29.986 
08:30	45.8	45.8	45.8	97	45.0	0	0	---	0.00	29.992 
08:35	46.4	46.4	46.4	97	45.6	0	0	---	0.00	29.992 
08:40	46.8	46.8	46.8	97	46.0	0	0	---	0.00	29.992 
08:45	47.1	47.1	47.1	97	46.3	0	0	---	0.00	29.997 
08:50	47.4	47.4	47.4	98	46.9	0	0	---	0.00	29.997 
08:55	48.0	48.0	48.0	98	47.5	0	0	---	0.00	29.997 
09:00	48.5	48.5	48.5	98	48.0	0	0	---	0.00	29.998 
09:05	49.1	49.1	49.1	98	48.6	0	1	270	0.00	29.998 
09:10	49.5	49.5	49.5	98	49.0	0	1	270	0.00	29.998 
09:15	49.9	49.9	49.9	98	49.4	0	1	270	0.00	30.009 
09:20	50.4	50.4	50.4	98	49.9	0	0	---	0.00	30.009 
09:25	50.8	50.8	50.8	98	50.3	0	1	270	0.00	30.009 
09:30	51.3	51.3	51.3	98	50.8	0	1	270	0.00	30.011 
09:35	51.7	51.7	51.7	98	51.2	0	1	270	0.00	30.011 
09:40	52.2	52.2	52.2	98	51.7	1	2	248	0.00	30.011 
09:45	52.8	52.8	52.8	97	52.0	0	2	248	0.00	30.016 
09:50	53.5	53.5	53.5	95	52.1	0	2	248	0.00	30.016 
09:55	54.2	54.2	54.2	91	51.6	1	2	248	0.00	30.016 
10:00	55.1	55.1	55.1	88	51.6	1	2	248	0.00	30.023 
10:05	56.0	56.0	56.0	85	51.6	1	2	248	0.00	30.023 
10:10	56.6	56.6	56.6	84	51.8	1	2	248	0.00	30.023 
10:15	57.3	57.3	57.3	83	52.2	1	2	248	0.00	30.027 
10:20	58.0	58.0	58.0	79	51.5	1	2	248	0.00	30.027 
10:25	58.4	58.4	58.4	77	51.2	1	2	248	0.00	30.027 
10:30	59.0	59.0	59.0	78	52.1	1	3	248	0.00	30.035 
10:35	59.6	59.6	59.6	76	52.0	1	3	248	0.00	30.035 
10:40	60.1	60.1	60.1	76	52.5	1	2	248	0.00	30.035 
10:45	60.7	60.7	60.7	72	51.6	1	3	248	0.00	30.036 
10:50	61.2	61.2	61.2	72	52.1	1	3	248	0.00	30.036 
10:55	61.8	61.8	61.8	71	52.3	1	2	248	0.00	30.036 
11:00	62.3	62.3	62.3	70	52.4	1	3	248	0.00	30.040 
11:05	62.4	62.4	62.4	67	51.3	2	4	248	0.00	30.040 
11:10	62.7	62.7	62.7	66	51.2	1	2	248	0.00	30.040 
11:15	63.1	63.1	63.1	66	51.6	1	4	292	0.00	30.039 
11:20	63.4	63.4	63.4	66	51.8	1	3	248	0.00	30.039 
11:25	64.0	64.0	64.0	66	52.4	1	4	248	0.00	30.039 
11:30	64.3	64.3	64.3	64	51.9	1	3	248	0.00	30.043 
11:35	64.5	64.5	64.5	63	51.6	2	4	248	0.00	30.043 
11:40	64.7	64.7	64.7	63	51.8	2	4	292	0.00	30.043 
11:45	65.0	65.0	65.0	63	52.1	1	4	248	0.00	30.045 
11:50	65.3	65.3	65.3	61	51.5	1	4	248	0.00	30.045 
11:55	65.6	65.6	65.6	61	51.8	1	3	270	0.00	30.045 
12:00	66.1	66.1	66.1	59	51.3	1	3	270	0.00	30.044 
12:05	66.3	66.3	66.3	58	51.1	2	3	248	0.00	30.044 
12:10	66.6	66.6	66.6	56	50.4	2	5	292	0.00	30.044 
12:15	66.6	66.6	66.6	57	50.9	2	5	248	0.00	30.043 
12:20	66.6	66.6	66.6	58	51.4	2	5	248	0.00	30.043 
12:25	66.9	66.9	66.9	59	52.1	1	3	248	0.00	30.043 
12:30	67.1	67.1	67.1	60	52.7	1	4	248	0.00	30.040 
12:35	67.1	67.1	67.1	58	51.8	2	4	270	0.00	30.040 
12:40	66.9	66.9	66.9	62	53.4	1	2	270	0.00	30.040 
12:45	67.1	67.1	67.1	56	50.9	2	4	292	0.00	30.037 
12:50	67.6	67.6	67.6	54	50.4	2	5	270	0.00	30.037 
12:55	67.9	67.9	67.9	53	50.1	2	5	292	0.00	30.037 
13:00	67.9	67.9	67.9	50	48.6	3	6	270	0.00	30.036 
13:05	68.1	68.1	68.1	50	48.7	2	5	270	0.00	30.036 
13:10	67.9	67.9	67.9	50	48.6	2	4	270	0.00	30.036 
13:15	68.3	68.3	68.3	51	49.5	2	5	292	0.00	30.041 
13:20	68.6	68.6	68.6	50	49.2	2	5	315	0.00	30.041 
13:25	68.8	68.8	68.8	49	48.8	2	5	315	0.00	30.041 
13:30	69.1	69.1	69.1	48	48.6	2	4	315	0.00	30.040 
13:35	69.1	69.1	69.1	50	49.7	2	3	315	0.00	30.040 
13:40	68.8	68.8	68.8	49	48.8	2	4	270	0.00	30.040 
13:45	68.9	68.9	68.9	49	48.9	2	4	270	0.00	30.041 
13:50	69.3	69.3	69.3	47	48.2	2	4	248	0.00	30.041 
13:55	69.3	69.3	69.3	48	48.8	2	6	270	0.00	30.041 
14:00	69.1	69.1	69.1	45	46.9	1	4	315	0.00	30.039 
14:05	69.4	69.4	69.4	48	48.8	2	4	270	0.00	30.039 
14:10	69.8	69.8	69.8	45	47.5	1	3	292	0.00	30.039 
14:15	69.9	69.9	69.9	43	46.4	2	4	270	0.00	30.042 
14:20	69.9	69.9	69.9	47	48.7	1	3	315	0.00	30.042 
14:25	70.1	70.1	70.1	47	48.9	1	3	315	0.00	30.042 
14:30	70.4	70.4	70.4	45	48.0	1	3	248	0.00	30.032 
14:35	70.4	70.4	70.4	44	47.4	2	5	248	0.00	30.032 
14:40	70.3	70.3	70.3	43	46.7	2	4	292	0.00	30.032 
14:45	70.1	70.1	70.1	41	45.3	2	3	270	0.00	30.032 
14:50	70.3	70.3	70.3	45	47.9	1	4	270	0.00	30.032 
14:55	70.3	70.3	70.3	45	47.9	3	5	270	0.00	30.032 
15:00	70.3	70.3	70.3	44	47.3	1	4	270	0.00	30.030 
15:05	70.4	70.4	70.4	46	48.6	1	3	292	0.00	30.030 
15:10	70.6	70.6	70.6	46	48.8	1	4	315	0.00	30.030 
15:15	70.9	70.9	70.9	45	48.5	2	4	248	0.00	30.027 
15:20	70.8	70.8	70.8	46	49.0	1	3	292	0.00	30.027 
15:25	70.4	70.4	70.4	46	48.6	1	4	292	0.00	30.027 
15:30	70.4	70.4	70.4	45	48.0	1	3	270	0.00	30.027 
15:35	70.6	70.6	70.6	43	47.0	2	4	270	0.00	30.027 
15:40	70.8	70.8	70.8	45	48.4	2	4	270	0.00	30.027 
15:45	70.8	70.8	70.8	44	47.8	2	5	248	0.00	30.029 
15:50	70.8	70.8	70.8	43	47.2	2	5	248	0.00	30.029 
15:55	70.8	70.8	70.8	42	46.6	1	3	315	0.00	30.029 
16:00	70.9	70.9	70.9	46	49.1	0	2	292	0.00	30.031 
16:05	70.9	70.9	70.9	41	46.0	1	2	315	0.00	30.031 
16:10	70.9	70.9	70.9	42	46.6	2	6	270	0.00	30.031 
16:15	70.9	70.9	70.9	39	44.7	2	5	248	0.00	30.037 
16:20	70.9	70.9	70.9	42	46.6	1	4	315	0.00	30.037 
16:25	70.9	70.9	70.9	40	45.4	1	4	248	0.00	30.037 
16:30	70.9	70.9	70.9	42	46.6	1	3	292	0.00	30.039 
16:35	70.8	70.8	70.8	39	44.6	2	4	315	0.00	30.039 
16:40	70.6	70.6	70.6	41	45.7	1	4	315	0.00	30.039 
16:45	70.6	70.6	70.6	41	45.7	1	2	315	0.00	30.042 
16:50	70.8	70.8	70.8	39	44.6	1	2	315	0.00	30.042 
16:55	70.8	70.8	70.8	41	45.9	0	2	315	0.00	30.042 
17:00	70.6	70.6	70.6	39	44.4	2	4	315	0.00	30.044 
17:05	70.6	70.6	70.6	40	45.1	0	2	292	0.00	30.044 
17:10	70.6	70.6	70.6	42	46.4	1	3	292	0.00	30.044 
17:15	70.8	70.8	70.8	41	45.9	1	3	292	0.00	30.052 
17:20	70.6	70.6	70.6	41	45.7	0	2	292	0.00	30.052 
17:25	70.6	70.6	70.6	43	47.0	0	2	315	0.00	30.052 
17:30	70.6	70.6	70.6	41	45.7	0	2	292	0.00	30.055 
17:35	70.6	70.6	70.6	43	47.0	1	2	315	0.00	30.055 
17:40	70.6	70.6	70.6	42	46.4	1	3	270	0.00	30.055 
17:45	70.6	70.6	70.6	41	45.7	1	3	270	0.00	30.052 
17:50	70.4	70.4	70.4	44	47.4	0	1	248	0.00	30.052 
17:55	70.3	70.3	70.3	43	46.7	0	1	248	0.00	30.052 
18:00	70.1	70.1	70.1	42	45.9	0	1	315	0.00	30.057 
18:05	69.9	69.9	69.9	43	46.4	0	1	315	0.00	30.057 
18:10	69.8	69.8	69.8	46	48.1	0	1	315	0.00	30.057 
18:15	69.4	69.4	69.4	45	47.1	0	1	315	0.00	30.059 
18:20	69.4	69.4	69.4	45	47.1	0	1	315	0.00	30.059 
18:25	69.3	69.3	69.3	45	47.0	0	1	315	0.00	30.059 
18:30	69.1	69.1	69.1	44	46.3	0	1	315	0.00	30.060 
18:35	68.9	68.9	68.9	47	47.8	0	0	---	0.00	30.060 
18:40	68.6	68.6	68.6	46	47.0	0	1	315	0.00	30.060 
18:45	68.3	68.3	68.3	46	46.7	0	0	---	0.00	30.061 
18:50	67.9	67.9	67.9	48	47.5	0	0	---	0.00	30.061 
18:55	67.6	67.6	67.6	49	47.8	0	0	---	0.00	30.061 
19:00	67.1	67.1	67.1	53	49.4	0	0	---	0.00	30.063 
19:05	66.4	66.4	66.4	55	49.7	0	0	---	0.00	30.063 
19:10	65.8	65.8	65.8	58	50.6	0	0	---	0.00	30.063 
19:15	65.0	65.0	65.0	59	50.3	0	0	---	0.00	30.066 
19:20	64.3	64.3	64.3	59	49.7	0	0	---	0.00	30.066 
19:25	63.5	63.5	63.5	61	49.8	0	0	---	0.00	30.066 
19:30	62.7	62.7	62.7	65	50.8	0	0	---	0.00	30.068 
19:35	62.1	62.1	62.1	65	50.2	0	0	---	0.00	30.068 
19:40	61.5	61.5	61.5	66	50.0	0	0	---	0.00	30.068 
19:45	60.7	60.7	60.7	67	49.7	0	0	---	0.00	30.071 
19:50	60.1	60.1	60.1	69	49.9	0	0	---	0.00	30.071 
19:55	59.3	59.3	59.3	71	49.9	0	0	---	0.00	30.071 
20:00	58.9	58.9	58.9	72	49.9	0	0	---	0.00	30.074 
20:05	58.6	58.6	58.6	72	49.6	0	0	---	0.00	30.074 
20:10	58.1	58.1	58.1	75	50.2	0	0	---	0.00	30.074 
20:15	57.6	57.6	57.6	76	50.1	0	0	---	0.00	30.070 
20:20	57.2	57.2	57.2	77	50.1	0	0	---	0.00	30.070 
20:25	56.9	56.9	56.9	78	50.1	0	0	---	0.00	30.070 
20:30	56.5	56.5	56.5	78	49.7	0	0	---	0.00	30.069 
20:35	56.2	56.2	56.2	79	49.8	0	0	---	0.00	30.069 
20:40	55.7	55.7	55.7	80	49.6	0	0	---	0.00	30.069 
20:45	55.6	55.6	55.6	81	49.9	0	0	---	0.00	30.072 
20:50	55.3	55.3	55.3	81	49.6	0	0	---	0.00	30.072 
20:55	55.1	55.1	55.1	82	49.7	0	0	---	0.00	30.072 
21:00	54.8	54.8	54.8	83	49.7	0	0	---	0.00	30.072 
21:05	54.5	54.5	54.5	83	49.4	0	0	---	0.00	30.072 
21:10	54.4	54.4	54.4	84	49.7	0	0	---	0.00	30.072 
21:15	54.1	54.1	54.1	84	49.4	0	0	---	0.00	30.071 
21:20	53.9	53.9	53.9	85	49.5	0	0	---	0.00	30.071 
21:25	53.6	53.6	53.6	86	49.5	0	0	---	0.00	30.071 
21:30	53.6	53.6	53.6	86	49.5	0	0	---	0.00	30.077 
21:35	53.5	53.5	53.5	87	49.7	0	0	---	0.00	30.077 
21:40	53.3	53.3	53.3	87	49.5	0	0	---	0.00	30.077 
21:45	53.2	53.2	53.2	87	49.4	0	0	---	0.00	30.083 
21:50	53.1	53.1	53.1	88	49.6	0	0	---	0.00	30.083 
21:55	52.8	52.8	52.8	88	49.3	0	0	---	0.00	30.083 
22:00	52.6	52.6	52.6	88	49.1	0	0	---	0.00	30.083 
22:05	52.5	52.5	52.5	89	49.4	0	0	---	0.00	30.083 
22:10	52.3	52.3	52.3	89	49.2	0	0	---	0.00	30.083 
22:15	52.2	52.2	52.2	89	49.1	0	0	---	0.00	30.080 
22:20	52.0	52.0	52.0	90	49.2	0	0	---	0.00	30.080 
22:25	52.0	52.0	52.0	90	49.2	0	0	---	0.00	30.080 
22:30	51.9	51.9	51.9	91	49.4	0	0	---	0.00	30.078 
22:35	51.7	51.7	51.7	91	49.2	0	0	---	0.00	30.078 
22:40	51.6	51.6	51.6	91	49.1	0	0	---	0.00	30.078 
22:45	51.4	51.4	51.4	91	48.9	0	0	---	0.00	30.079 
22:50	51.3	51.3	51.3	92	49.1	0	0	---	0.00	30.079 
22:55	51.3	51.3	51.3	92	49.1	0	0	---	0.00	30.079 
23:00	51.3	51.3	51.3	92	49.1	0	0	---	0.00	30.076 
23:05	51.3	51.3	51.3	92	49.1	0	0	---	0.00	30.076 
23:10	51.3	51.3	51.3	93	49.3	0	0	---	0.00	30.076 
23:15	51.1	51.1	51.1	93	49.1	0	0	---	0.00	30.076 
23:20	51.1	51.1	51.1	93	49.1	0	0	---	0.00	30.076 
23:25	51.0	51.0	51.0	93	49.0	0	0	---	0.00	30.076 
23:30	50.8	50.8	50.8	93	48.8	0	0	---	0.00	30.075 
23:35	50.7	50.7	50.7	93	48.7	0	0	---	0.00	30.075 
23:40	50.7	50.7	50.7	93	48.7	0	0	---	0.00	30.075 
23:45	50.5	50.5	50.5	93	48.6	0	0	---	0.00	30.076 
23:50	50.4	50.4	50.4	93	48.5	0	0	---	0.00	30.076 
23:55	50.4	50.4	50.4	93	48.5	0	0	---	0.00	30.076 

CoCoRaHS
IN-AL-39
A2 Web Hosting
Creative Commons License
GoDaddy
Look for:

loaded 2017-12-11 23:13:51 • last modified 2010-11-18 10:43:29
Privacy PolicyDisclaimer
• wx.awcolley.com is powered by PmWiki v.2002016 •
• all content (unless otherwise noted) © 2017 A W Colley